createdAt,value
2016-09-30T00:00:45.650Z,0
2016-09-30T00:01:46.164Z,0
2016-09-30T00:02:46.824Z,0
2016-09-30T00:03:47.186Z,0
2016-09-30T00:04:47.697Z,0
2016-09-30T00:05:48.212Z,0
2016-09-30T00:06:48.721Z,0
2016-09-30T00:07:49.240Z,0
2016-09-30T00:08:49.753Z,0
2016-09-30T00:09:50.270Z,0
2016-09-30T00:10:50.789Z,0
2016-09-30T00:11:51.300Z,0
2016-09-30T00:12:51.809Z,0
2016-09-30T00:13:53.828Z,0
2016-09-30T00:14:52.834Z,0
2016-09-30T00:15:53.356Z,0
2016-09-30T00:16:53.884Z,0
2016-09-30T00:17:54.518Z,0
2016-09-30T00:18:54.879Z,0
2016-09-30T00:19:55.390Z,0
2016-09-30T00:20:55.922Z,0
2016-09-30T00:21:56.418Z,0
2016-09-30T00:22:56.924Z,0
2016-09-30T00:23:57.439Z,0
2016-09-30T00:24:57.948Z,0
2016-09-30T00:25:58.467Z,0
2016-09-30T00:26:58.976Z,0
2016-09-30T00:27:59.493Z,0
2016-09-30T00:29:00.003Z,0
2016-09-30T00:30:00.513Z,0
2016-09-30T00:31:01.175Z,0
2016-09-30T00:32:01.545Z,0
2016-09-30T00:33:02.053Z,0
2016-09-30T00:34:02.719Z,0
2016-09-30T00:35:03.076Z,0
2016-09-30T00:36:03.592Z,0
2016-09-30T00:37:04.096Z,0
2016-09-30T00:38:04.610Z,0
2016-09-30T00:39:05.122Z,0
2016-09-30T00:40:05.776Z,0
2016-09-30T00:41:06.140Z,0
2016-09-30T00:42:06.801Z,0
2016-09-30T00:43:07.172Z,0
2016-09-30T00:44:07.676Z,0
2016-09-30T00:45:08.187Z,0
2016-09-30T00:46:08.708Z,0
2016-09-30T00:47:09.228Z,0
2016-09-30T00:48:09.745Z,0
2016-09-30T00:49:10.254Z,0
2016-09-30T00:50:10.915Z,0
2016-09-30T00:51:11.456Z,0
2016-09-30T00:52:11.810Z,0
2016-09-30T00:53:12.304Z,0
2016-09-30T00:54:12.810Z,0
2016-09-30T00:55:13.469Z,0
2016-09-30T00:56:13.832Z,0
2016-09-30T00:57:14.341Z,0
2016-09-30T00:58:14.862Z,0
2016-09-30T00:59:15.367Z,0
2016-09-30T01:00:15.880Z,0
2016-09-30T01:01:17.743Z,0
2016-09-30T01:02:16.898Z,0
2016-09-30T01:03:17.406Z,0
2016-09-30T01:04:17.922Z,0
2016-09-30T01:05:18.432Z,0
2016-09-30T01:06:18.943Z,0
2016-09-30T01:07:19.453Z,0
2016-09-30T01:08:19.964Z,0
2016-09-30T01:09:20.477Z,0
2016-09-30T01:10:21.137Z,0
2016-09-30T01:11:21.501Z,0
2016-09-30T01:12:22.015Z,0
2016-09-30T01:13:22.528Z,0
2016-09-30T01:14:23.034Z,0
2016-09-30T01:15:23.552Z,0
2016-09-30T01:16:24.062Z,0
2016-09-30T01:17:24.724Z,0
2016-09-30T01:18:25.239Z,0
2016-09-30T01:19:25.746Z,0
2016-09-30T01:20:26.104Z,0
2016-09-30T01:21:26.622Z,0
2016-09-30T01:22:27.132Z,0
2016-09-30T01:23:27.797Z,0
2016-09-30T01:24:28.165Z,0
2016-09-30T01:25:28.680Z,0
2016-09-30T01:26:29.195Z,0
2016-09-30T01:27:29.709Z,0
2016-09-30T01:28:30.372Z,0
2016-09-30T01:29:30.737Z,0
2016-09-30T01:30:31.247Z,0
2016-09-30T01:31:32.846Z,0
2016-09-30T01:32:32.277Z,0
2016-09-30T01:33:32.786Z,0
2016-09-30T01:34:33.472Z,0
2016-09-30T01:35:33.804Z,0
2016-09-30T01:36:34.330Z,0
2016-09-30T01:37:34.826Z,0
2016-09-30T01:38:35.342Z,0
2016-09-30T01:39:35.850Z,0
2016-09-30T01:40:36.366Z,0
2016-09-30T01:41:36.887Z,0
2016-09-30T01:42:37.544Z,0
2016-09-30T01:43:38.054Z,0
2016-09-30T01:44:38.424Z,0
2016-09-30T01:45:39.081Z,0
2016-09-30T01:46:39.590Z,0
2016-09-30T01:47:39.963Z,0
2016-09-30T01:48:40.463Z,0
2016-09-30T01:49:41.874Z,0
2016-09-30T01:50:41.484Z,0
2016-09-30T01:51:42.000Z,0
2016-09-30T01:52:42.514Z,0
2016-09-30T01:53:43.324Z,0
2016-09-30T01:54:43.541Z,0
2016-09-30T01:55:44.057Z,0
2016-09-30T01:56:44.570Z,0
2016-09-30T01:57:45.079Z,0
2016-09-30T01:58:45.588Z,0
2016-09-30T01:59:46.099Z,0
2016-09-30T02:00:46.617Z,0
2016-09-30T02:01:47.290Z,0
2016-09-30T02:02:47.647Z,0
2016-09-30T02:03:48.163Z,0
2016-09-30T02:04:48.835Z,0
2016-09-30T02:05:49.333Z,0
2016-09-30T02:06:49.695Z,0
2016-09-30T02:07:50.202Z,0
2016-09-30T02:08:50.720Z,0
2016-09-30T02:09:51.230Z,0
2016-09-30T02:10:51.889Z,0
2016-09-30T02:11:52.251Z,0
2016-09-30T02:12:52.765Z,0
2016-09-30T02:13:53.280Z,0
2016-09-30T02:14:53.936Z,0
2016-09-30T02:15:54.302Z,0
2016-09-30T02:16:54.821Z,0
2016-09-30T02:17:55.322Z,0
2016-09-30T02:18:55.835Z,0
2016-09-30T02:19:57.093Z,0
2016-09-30T02:20:57.025Z,0
2016-09-30T02:21:57.367Z,0
2016-09-30T02:22:57.885Z,0
2016-09-30T02:23:58.393Z,0
2016-09-30T02:24:58.904Z,0
2016-09-30T02:25:59.564Z,0
2016-09-30T02:26:59.923Z,0
2016-09-30T02:28:00.433Z,0
2016-09-30T02:29:00.943Z,0
2016-09-30T02:30:01.611Z,0
2016-09-30T02:31:01.969Z,0
2016-09-30T02:32:02.628Z,0
2016-09-30T02:33:02.990Z,0
2016-09-30T02:34:03.506Z,0
2016-09-30T02:35:04.021Z,0
2016-09-30T02:36:04.536Z,0
2016-09-30T02:37:06.246Z,0
2016-09-30T02:38:05.571Z,0
2016-09-30T02:39:06.075Z,0
2016-09-30T02:40:06.593Z,0
2016-09-30T02:41:07.105Z,0
2016-09-30T02:42:07.618Z,0
2016-09-30T02:43:08.278Z,0
2016-09-30T02:44:08.634Z,0
2016-09-30T02:45:09.149Z,0
2016-09-30T02:46:09.670Z,0
2016-09-30T02:47:10.178Z,0
2016-09-30T02:48:10.840Z,0
2016-09-30T02:49:11.222Z,0
2016-09-30T02:50:14.714Z,0
2016-09-30T02:51:12.247Z,0
2016-09-30T02:52:12.739Z,0
2016-09-30T02:53:13.254Z,0
2016-09-30T02:54:13.761Z,0
2016-09-30T02:55:14.433Z,0
2016-09-30T02:56:14.785Z,0
2016-09-30T02:57:15.297Z,0
2016-09-30T02:58:15.836Z,0
2016-09-30T02:59:16.471Z,0
2016-09-30T03:00:16.979Z,0
2016-09-30T03:01:17.340Z,0
2016-09-30T03:02:17.856Z,0
2016-09-30T03:03:18.513Z,0
2016-09-30T03:04:18.877Z,0
2016-09-30T03:05:19.536Z,0
2016-09-30T03:06:19.923Z,0
2016-09-30T03:07:21.455Z,0
2016-09-30T03:08:21.510Z,0
2016-09-30T03:09:21.600Z,0
2016-09-30T03:10:21.963Z,0
2016-09-30T03:11:22.620Z,0
2016-09-30T03:12:23.136Z,0
2016-09-30T03:13:23.504Z,0
2016-09-30T03:14:24.026Z,0
2016-09-30T03:15:24.527Z,0
2016-09-30T03:16:25.050Z,0
2016-09-30T03:17:26.018Z,0
2016-09-30T03:18:26.354Z,0
2016-09-30T03:19:26.753Z,0
2016-09-30T03:20:27.381Z,0
2016-09-30T03:21:27.600Z,0
2016-09-30T03:22:28.110Z,0
2016-09-30T03:23:28.626Z,0
2016-09-30T03:24:29.128Z,0
2016-09-30T03:25:31.143Z,0
2016-09-30T03:26:30.303Z,0
2016-09-30T03:27:30.812Z,0
2016-09-30T03:28:31.174Z,0
2016-09-30T03:29:31.688Z,0
2016-09-30T03:30:32.197Z,0
2016-09-30T03:31:32.708Z,0
2016-09-30T03:32:33.243Z,0
2016-09-30T03:33:33.733Z,0
2016-09-30T03:34:34.405Z,0
2016-09-30T03:35:34.757Z,0
2016-09-30T03:36:35.426Z,0
2016-09-30T03:37:35.783Z,0
2016-09-30T03:38:36.299Z,0
2016-09-30T03:39:36.809Z,0
2016-09-30T03:40:37.318Z,0
2016-09-30T03:41:37.844Z,0
2016-09-30T03:42:38.492Z,0
2016-09-30T03:43:38.858Z,0
2016-09-30T03:44:39.521Z,0
2016-09-30T03:45:39.875Z,0
2016-09-30T03:46:40.390Z,0
2016-09-30T03:47:40.899Z,0
2016-09-30T03:48:41.411Z,0
2016-09-30T03:49:41.924Z,0
2016-09-30T03:50:42.445Z,0
2016-09-30T03:51:42.948Z,0
2016-09-30T03:52:43.461Z,0
2016-09-30T03:53:43.975Z,0
2016-09-30T03:54:44.490Z,0
2016-09-30T03:55:46.361Z,0
2016-09-30T03:56:45.514Z,0
2016-09-30T03:57:46.029Z,0
2016-09-30T03:58:46.690Z,0
2016-09-30T03:59:47.059Z,0
2016-09-30T04:00:47.714Z,0
2016-09-30T04:01:48.073Z,0
2016-09-30T04:02:48.588Z,0
2016-09-30T04:03:49.098Z,0
2016-09-30T04:04:49.754Z,0
2016-09-30T04:05:50.114Z,0
2016-09-30T04:06:50.621Z,0
2016-09-30T04:07:51.129Z,0
2016-09-30T04:08:51.643Z,0
2016-09-30T04:09:52.306Z,0
2016-09-30T04:10:52.666Z,0
2016-09-30T04:11:53.178Z,0
2016-09-30T04:12:53.994Z,0
2016-09-30T04:13:54.354Z,0
2016-09-30T04:14:54.722Z,0
2016-09-30T04:15:55.242Z,0
2016-09-30T04:16:55.745Z,0
2016-09-30T04:17:56.262Z,0
2016-09-30T04:18:56.772Z,0
2016-09-30T04:19:57.279Z,0
2016-09-30T04:20:57.940Z,0
2016-09-30T04:21:58.299Z,0
2016-09-30T04:22:58.810Z,0
2016-09-30T04:23:59.323Z,0
2016-09-30T04:24:59.830Z,0
2016-09-30T04:26:00.491Z,0
2016-09-30T04:27:00.858Z,0
2016-09-30T04:28:01.364Z,0
2016-09-30T04:29:02.035Z,0
2016-09-30T04:30:02.412Z,0
2016-09-30T04:31:02.912Z,0
2016-09-30T04:32:03.423Z,0
2016-09-30T04:33:04.085Z,0
2016-09-30T04:34:04.596Z,0
2016-09-30T04:35:05.104Z,0
2016-09-30T04:36:05.462Z,0
2016-09-30T04:37:05.979Z,0
2016-09-30T04:38:06.650Z,0
2016-09-30T04:39:07.016Z,0
2016-09-30T04:40:07.516Z,0
2016-09-30T04:41:08.033Z,0
2016-09-30T04:42:08.547Z,0
2016-09-30T04:43:09.077Z,0
2016-09-30T04:44:09.562Z,0
2016-09-30T04:45:10.077Z,0
2016-09-30T04:46:10.586Z,0
2016-09-30T04:47:11.114Z,0
2016-09-30T04:48:11.606Z,0
2016-09-30T04:49:12.269Z,0
2016-09-30T04:50:12.776Z,0
2016-09-30T04:51:13.144Z,0
2016-09-30T04:52:13.650Z,0
2016-09-30T04:53:14.161Z,0
2016-09-30T04:54:14.671Z,0
2016-09-30T04:55:15.184Z,0
2016-09-30T04:56:15.697Z,0
2016-09-30T04:57:16.364Z,0
2016-09-30T04:58:16.868Z,0
2016-09-30T04:59:17.233Z,0
2016-09-30T05:00:17.748Z,0
2016-09-30T05:01:18.259Z,0
2016-09-30T05:02:19.970Z,0
2016-09-30T05:03:19.432Z,0
2016-09-30T05:04:19.799Z,0
2016-09-30T05:05:20.319Z,0
2016-09-30T05:06:20.975Z,0
2016-09-30T05:07:21.653Z,0
2016-09-30T05:08:21.885Z,0
2016-09-30T05:09:22.374Z,0
2016-09-30T05:10:22.890Z,0
2016-09-30T05:11:23.559Z,0
2016-09-30T05:12:23.912Z,0
2016-09-30T05:13:24.426Z,0
2016-09-30T05:14:24.939Z,0
2016-09-30T05:15:25.605Z,0
2016-09-30T05:16:26.269Z,0
2016-09-30T05:17:26.627Z,0
2016-09-30T05:18:26.991Z,0
2016-09-30T05:19:27.502Z,0
2016-09-30T05:20:28.318Z,0
2016-09-30T05:21:28.522Z,0
2016-09-30T05:22:29.041Z,0
2016-09-30T05:23:29.553Z,0
2016-09-30T05:24:30.066Z,0
2016-09-30T05:25:32.373Z,0
2016-09-30T05:26:31.084Z,0
2016-09-30T05:27:31.596Z,0
2016-09-30T05:28:32.105Z,0
2016-09-30T05:29:32.617Z,0
2016-09-30T05:30:33.283Z,0
2016-09-30T05:31:33.642Z,0
2016-09-30T05:32:34.164Z,0
2016-09-30T05:33:34.842Z,0
2016-09-30T05:34:35.343Z,0
2016-09-30T05:35:35.858Z,0
2016-09-30T05:36:37.104Z,0
2016-09-30T05:37:36.747Z,0
2016-09-30T05:38:37.232Z,14
2016-09-30T05:39:37.743Z,13
2016-09-30T05:40:38.253Z,14
2016-09-30T05:41:40.261Z,13
2016-09-30T05:42:39.271Z,12
2016-09-30T05:43:39.934Z,10
2016-09-30T05:44:40.301Z,11
2016-09-30T05:45:40.976Z,12
2016-09-30T05:46:41.336Z,13
2016-09-30T05:47:41.845Z,14
2016-09-30T05:48:42.360Z,16
2016-09-30T05:49:42.868Z,19
2016-09-30T05:50:43.528Z,21
2016-09-30T05:51:43.892Z,23
2016-09-30T05:52:44.555Z,24
2016-09-30T05:53:44.912Z,23
2016-09-30T05:54:45.425Z,21
2016-09-30T05:55:45.932Z,21
2016-09-30T05:56:46.445Z,21
2016-09-30T05:57:46.951Z,22
2016-09-30T05:58:47.465Z,23
2016-09-30T05:59:48.138Z,23
2016-09-30T06:00:48.489Z,24
2016-09-30T06:01:49.150Z,25
2016-09-30T06:02:49.515Z,26
2016-09-30T06:03:50.024Z,26
2016-09-30T06:04:50.536Z,27
2016-09-30T06:05:51.048Z,28
2016-09-30T06:06:51.572Z,28
2016-09-30T06:07:52.069Z,27
2016-09-30T06:08:52.733Z,26
2016-09-30T06:09:53.388Z,30
2016-09-30T06:10:53.622Z,33
2016-09-30T06:11:54.273Z,34
2016-09-30T06:12:54.626Z,34
2016-09-30T06:13:55.155Z,33
2016-09-30T06:14:55.650Z,33
2016-09-30T06:15:56.161Z,33
2016-09-30T06:16:56.675Z,33
2016-09-30T06:17:57.345Z,32
2016-09-30T06:18:57.712Z,33
2016-09-30T06:19:58.233Z,34
2016-09-30T06:20:58.756Z,35
2016-09-30T06:21:59.302Z,37
2016-09-30T06:22:59.809Z,38
2016-09-30T06:24:00.327Z,37
2016-09-30T06:25:00.851Z,37
2016-09-30T06:26:01.381Z,39
2016-09-30T06:27:01.899Z,44
2016-09-30T06:28:02.572Z,49
2016-09-30T06:29:02.938Z,53
2016-09-30T06:30:03.451Z,56
2016-09-30T06:31:03.965Z,58
2016-09-30T06:32:04.629Z,58
2016-09-30T06:33:05.132Z,60
2016-09-30T06:34:05.517Z,63
2016-09-30T06:35:06.012Z,70
2016-09-30T06:36:06.672Z,76
2016-09-30T06:37:07.028Z,89
2016-09-30T06:38:07.550Z,104
2016-09-30T06:39:08.051Z,116
2016-09-30T06:40:08.563Z,115
2016-09-30T06:41:09.079Z,109
2016-09-30T06:42:09.739Z,111
2016-09-30T06:43:10.254Z,120
2016-09-30T06:44:10.627Z,127
2016-09-30T06:45:11.273Z,136
2016-09-30T06:46:11.634Z,139
2016-09-30T06:47:12.295Z,146
2016-09-30T06:48:12.656Z,147
2016-09-30T06:49:13.198Z,141
2016-09-30T06:50:13.681Z,139
2016-09-30T06:51:14.344Z,137
2016-09-30T06:52:14.857Z,135
2016-09-30T06:53:15.220Z,136
2016-09-30T06:54:15.737Z,139
2016-09-30T06:55:16.248Z,143
2016-09-30T06:56:16.773Z,150
2016-09-30T06:57:17.283Z,160
2016-09-30T06:58:17.797Z,170
2016-09-30T06:59:18.320Z,177
2016-09-30T07:00:20.029Z,181
2016-09-30T07:01:19.366Z,189
2016-09-30T07:02:19.853Z,195
2016-09-30T07:03:20.365Z,202
2016-09-30T07:04:20.878Z,208
2016-09-30T07:05:21.547Z,214
2016-09-30T07:07:13.702Z,205
2016-09-30T07:08:23.070Z,195
2016-09-30T07:09:23.578Z,183
2016-09-30T07:10:23.942Z,167
2016-09-30T07:11:24.602Z,165
2016-09-30T07:12:24.994Z,167
2016-09-30T07:13:25.622Z,174
2016-09-30T07:14:26.287Z,178
2016-09-30T07:15:26.522Z,169
2016-09-30T07:16:27.011Z,173
2016-09-30T07:17:27.673Z,169
2016-09-30T07:18:28.360Z,167
2016-09-30T07:19:28.542Z,164
2016-09-30T07:20:29.060Z,220
2016-09-30T07:21:29.570Z,241
2016-09-30T07:22:30.231Z,255
2016-09-30T07:23:30.893Z,310
2016-09-30T07:24:31.106Z,181
2016-09-30T07:25:31.616Z,174
2016-09-30T07:26:32.128Z,264
2016-09-30T07:27:32.793Z,213
2016-09-30T07:28:33.160Z,308
2016-09-30T07:29:33.811Z,255
2016-09-30T07:30:34.192Z,268
2016-09-30T07:31:34.690Z,188
2016-09-30T07:32:35.197Z,202
2016-09-30T07:33:36.041Z,187
2016-09-30T07:34:36.674Z,214
2016-09-30T07:35:36.743Z,243
2016-09-30T07:36:37.556Z,247
2016-09-30T07:37:37.771Z,264
2016-09-30T07:38:38.284Z,277
2016-09-30T07:39:38.797Z,252
2016-09-30T07:40:39.462Z,256
2016-09-30T07:41:39.818Z,298
2016-09-30T07:42:40.480Z,442
2016-09-30T07:43:41.144Z,311
2016-09-30T07:44:41.351Z,272
2016-09-30T07:45:41.870Z,312
2016-09-30T07:46:42.398Z,275
2016-09-30T07:47:42.889Z,236
2016-09-30T07:48:45.050Z,207
2016-09-30T07:49:43.906Z,206
2016-09-30T07:50:44.530Z,210
2016-09-30T07:51:45.085Z,201
2016-09-30T07:52:45.601Z,204
2016-09-30T07:53:45.959Z,230
2016-09-30T07:54:46.470Z,243
2016-09-30T07:55:46.980Z,268
2016-09-30T07:56:47.496Z,275
2016-09-30T07:57:48.012Z,277
2016-09-30T07:58:48.513Z,276
2016-09-30T07:59:49.034Z,269
2016-09-30T08:00:49.536Z,257
2016-09-30T08:01:50.046Z,247
2016-09-30T08:02:50.556Z,237
2016-09-30T08:03:51.067Z,221
2016-09-30T08:04:51.595Z,195
2016-09-30T08:05:52.088Z,169
2016-09-30T08:06:54.249Z,155
2016-09-30T08:07:53.109Z,160
2016-09-30T08:08:53.618Z,167
2016-09-30T08:09:54.283Z,174
2016-09-30T08:10:54.639Z,180
2016-09-30T08:11:55.154Z,202
2016-09-30T08:12:55.668Z,242
2016-09-30T08:13:56.189Z,273
2016-09-30T08:14:56.855Z,304
2016-09-30T08:15:57.223Z,291
2016-09-30T08:16:57.728Z,306
2016-09-30T08:17:58.271Z,354
2016-09-30T08:18:58.918Z,342
2016-09-30T08:19:59.272Z,363
2016-09-30T08:20:59.780Z,333
2016-09-30T08:22:00.294Z,319
2016-09-30T08:23:00.814Z,295
2016-09-30T08:24:01.322Z,281
2016-09-30T08:25:01.845Z,283
2016-09-30T08:26:02.493Z,269
2016-09-30T08:27:02.849Z,258
2016-09-30T08:28:03.360Z,239
2016-09-30T08:29:03.894Z,217
2016-09-30T08:30:04.534Z,207
2016-09-30T08:31:04.899Z,218
2016-09-30T08:32:05.413Z,215
2016-09-30T08:33:05.944Z,205
2016-09-30T08:34:06.579Z,208
2016-09-30T08:35:06.945Z,227
2016-09-30T08:36:07.465Z,244
2016-09-30T08:37:08.268Z,252
2016-09-30T08:38:08.479Z,254
2016-09-30T08:39:08.990Z,244
2016-09-30T08:40:09.500Z,236
2016-09-30T08:41:10.161Z,237
2016-09-30T08:42:10.679Z,244
2016-09-30T08:43:11.036Z,255
2016-09-30T08:44:11.555Z,266
2016-09-30T08:45:12.219Z,273
2016-09-30T08:46:12.727Z,282
2016-09-30T08:47:13.090Z,288
2016-09-30T08:48:13.605Z,291
2016-09-30T08:49:14.117Z,292
2016-09-30T08:50:14.787Z,290
2016-09-30T08:51:15.153Z,281
2016-09-30T08:52:15.668Z,264
2016-09-30T08:53:16.191Z,253
2016-09-30T08:54:16.704Z,251
2016-09-30T08:55:17.443Z,273
2016-09-30T08:56:17.723Z,308
2016-09-30T08:57:18.234Z,332
2016-09-30T08:58:18.746Z,348
2016-09-30T08:59:19.414Z,368
2016-09-30T09:00:19.777Z,385
2016-09-30T09:01:20.314Z,400
2016-09-30T09:02:20.803Z,488
2016-09-30T09:03:21.465Z,625
2016-09-30T09:04:21.830Z,617
2016-09-30T09:05:22.492Z,570
2016-09-30T09:06:22.877Z,643
2016-09-30T09:07:23.389Z,910
2016-09-30T09:08:24.026Z,902
2016-09-30T09:09:24.385Z,673
2016-09-30T09:10:25.049Z,493
2016-09-30T09:11:25.408Z,715
2016-09-30T09:12:26.087Z,402
2016-09-30T09:13:26.436Z,352
2016-09-30T09:14:26.941Z,341
2016-09-30T09:15:27.456Z,400
2016-09-30T09:16:28.109Z,819
2016-09-30T09:17:28.470Z,786
2016-09-30T09:18:28.985Z,453
2016-09-30T09:19:29.495Z,462
2016-09-30T09:20:30.010Z,481
2016-09-30T09:21:30.523Z,777
2016-09-30T09:22:31.069Z,419
2016-09-30T09:23:31.714Z,422
2016-09-30T09:24:33.411Z,681
2016-09-30T09:25:32.572Z,447
2016-09-30T09:26:33.089Z,414
2016-09-30T09:27:33.760Z,468
2016-09-30T09:28:34.123Z,783
2016-09-30T09:29:34.650Z,915
2016-09-30T09:30:35.149Z,819
2016-09-30T09:31:35.663Z,638
2016-09-30T09:32:36.342Z,764
2016-09-30T09:33:36.832Z,763
2016-09-30T09:34:37.194Z,614
2016-09-30T09:35:37.705Z,524
2016-09-30T09:36:38.241Z,630
2016-09-30T09:37:38.726Z,509
2016-09-30T09:38:39.429Z,564
2016-09-30T09:39:39.747Z,628
2016-09-30T09:40:40.284Z,669
2016-09-30T09:41:40.770Z,630
2016-09-30T09:42:42.945Z,618
2016-09-30T09:43:41.796Z,486
2016-09-30T09:44:42.307Z,488
2016-09-30T09:45:42.816Z,481
2016-09-30T09:46:43.336Z,483
2016-09-30T09:47:43.846Z,498
2016-09-30T09:48:44.358Z,484
2016-09-30T09:49:44.868Z,492
2016-09-30T09:50:45.380Z,585
2016-09-30T09:51:45.890Z,540
2016-09-30T09:52:46.402Z,520
2016-09-30T09:53:46.913Z,518
2016-09-30T09:54:47.573Z,495
2016-09-30T09:55:47.932Z,551
2016-09-30T09:56:48.597Z,543
2016-09-30T09:57:48.964Z,516
2016-09-30T09:58:49.467Z,443
2016-09-30T09:59:49.976Z,528
2016-09-30T10:00:50.492Z,537
2016-09-30T10:01:51.020Z,535
2016-09-30T10:02:51.520Z,516
2016-09-30T10:03:52.038Z,467
2016-09-30T10:04:52.561Z,313
2016-09-30T10:05:53.072Z,235
2016-09-30T10:06:53.609Z,258
2016-09-30T10:07:54.095Z,292
2016-09-30T10:08:54.605Z,259
2016-09-30T10:09:55.271Z,479
2016-09-30T10:10:55.633Z,504
2016-09-30T10:11:56.153Z,517
2016-09-30T10:12:57.104Z,569
2016-09-30T10:13:57.162Z,553
2016-09-30T10:14:57.820Z,594
2016-09-30T10:15:58.182Z,599
2016-09-30T10:16:58.697Z,642
2016-09-30T10:17:59.209Z,611
2016-09-30T10:18:59.892Z,595
2016-09-30T10:20:00.236Z,528
2016-09-30T10:21:00.751Z,562
2016-09-30T10:22:01.292Z,567
2016-09-30T10:23:01.802Z,526
2016-09-30T10:24:02.440Z,521
2016-09-30T10:25:02.806Z,502
2016-09-30T10:26:03.310Z,466
2016-09-30T10:27:03.829Z,465
2016-09-30T10:28:04.636Z,496
2016-09-30T10:29:04.862Z,584
2016-09-30T10:30:05.361Z,538
2016-09-30T10:31:05.872Z,502
2016-09-30T10:32:06.525Z,538
2016-09-30T10:33:06.889Z,541
2016-09-30T10:34:07.399Z,612
2016-09-30T10:35:08.061Z,699
2016-09-30T10:36:08.421Z,780
2016-09-30T10:37:08.931Z,773
2016-09-30T10:38:09.596Z,782
2016-09-30T10:39:09.959Z,744
2016-09-30T10:40:10.471Z,724
2016-09-30T10:41:10.987Z,657
2016-09-30T10:42:11.510Z,636
2016-09-30T10:43:12.170Z,657
2016-09-30T10:44:12.683Z,590
2016-09-30T10:45:13.043Z,696
2016-09-30T10:46:13.706Z,700
2016-09-30T10:47:14.069Z,677
2016-09-30T10:48:14.580Z,681
2016-09-30T10:49:15.389Z,624
2016-09-30T10:50:15.605Z,597
2016-09-30T10:51:16.112Z,572
2016-09-30T10:52:16.649Z,620
2016-09-30T10:53:17.137Z,636
2016-09-30T10:54:17.649Z,723
2016-09-30T10:55:18.160Z,712
2016-09-30T10:56:18.676Z,730
2016-09-30T10:57:19.184Z,708
2016-09-30T10:58:19.692Z,721
2016-09-30T10:59:20.358Z,737
2016-09-30T11:00:20.723Z,715
2016-09-30T11:01:21.221Z,687
2016-09-30T11:02:21.730Z,676
2016-09-30T11:03:22.247Z,723
2016-09-30T11:04:22.908Z,752
2016-09-30T11:05:23.266Z,765
2016-09-30T11:06:23.928Z,778
2016-09-30T11:07:24.295Z,839
2016-09-30T11:08:24.954Z,783
2016-09-30T11:09:25.331Z,804
2016-09-30T11:10:25.831Z,788
2016-09-30T11:11:26.340Z,764
2016-09-30T11:12:26.851Z,750
2016-09-30T11:13:27.363Z,805
2016-09-30T11:14:27.902Z,913
2016-09-30T11:15:28.392Z,701
2016-09-30T11:16:28.901Z,672
2016-09-30T11:17:29.569Z,667
2016-09-30T11:18:30.537Z,752
2016-09-30T11:19:30.464Z,557
2016-09-30T11:20:30.996Z,423
2016-09-30T11:21:31.483Z,735
2016-09-30T11:22:32.149Z,766
2016-09-30T11:23:32.508Z,694
2016-09-30T11:24:33.028Z,388
2016-09-30T11:25:33.537Z,562
2016-09-30T11:26:34.198Z,374
2016-09-30T11:27:34.554Z,413
2016-09-30T11:28:35.063Z,480
2016-09-30T11:29:35.601Z,399
2016-09-30T11:30:36.243Z,370
2016-09-30T11:31:36.906Z,377
2016-09-30T11:32:37.415Z,487
2016-09-30T11:33:37.624Z,607
2016-09-30T11:34:38.136Z,506
2016-09-30T11:35:38.805Z,509
2016-09-30T11:36:39.168Z,520
2016-09-30T11:37:39.678Z,475
2016-09-30T11:38:40.188Z,475
2016-09-30T11:39:40.702Z,475
2016-09-30T11:40:41.213Z,562
2016-09-30T11:41:41.873Z,593
2016-09-30T11:42:42.240Z,575
2016-09-30T11:43:42.753Z,514
2016-09-30T11:44:43.259Z,468
2016-09-30T11:45:43.775Z,649
2016-09-30T11:46:44.290Z,618
2016-09-30T11:47:44.803Z,590
2016-09-30T11:48:47.111Z,545
2016-09-30T11:49:45.970Z,403
2016-09-30T11:50:46.490Z,375
2016-09-30T11:51:46.845Z,354
2016-09-30T11:52:47.360Z,300
2016-09-30T11:53:47.880Z,285
2016-09-30T11:54:48.542Z,280
2016-09-30T11:55:48.909Z,267
2016-09-30T11:56:49.425Z,265
2016-09-30T11:57:49.939Z,270
2016-09-30T11:58:50.454Z,272
2016-09-30T11:59:51.275Z,275
2016-09-30T12:00:51.479Z,278
2016-09-30T12:01:51.992Z,291
2016-09-30T12:02:52.501Z,274
2016-09-30T12:04:53.525Z,268
2016-09-30T12:05:54.042Z,275
2016-09-30T12:06:55.898Z,298
2016-09-30T12:07:55.077Z,368
2016-09-30T12:08:55.724Z,525
2016-09-30T12:09:56.084Z,479
2016-09-30T12:10:56.597Z,378
2016-09-30T12:11:57.106Z,319
2016-09-30T12:12:57.617Z,304
2016-09-30T12:13:58.142Z,317
2016-09-30T12:14:58.636Z,321
2016-09-30T12:15:59.163Z,322
2016-09-30T12:16:59.653Z,316
2016-09-30T12:18:00.325Z,328
2016-09-30T12:19:00.684Z,317
2016-09-30T12:20:01.204Z,305
2016-09-30T12:21:01.702Z,302
2016-09-30T12:22:02.239Z,304
2016-09-30T12:23:02.725Z,288
2016-09-30T12:24:03.238Z,256
2016-09-30T12:25:03.744Z,229
2016-09-30T12:26:04.262Z,226
2016-09-30T12:27:04.919Z,236
2016-09-30T12:28:05.438Z,240
2016-09-30T12:29:05.952Z,235
2016-09-30T12:30:06.305Z,233
2016-09-30T12:31:06.824Z,243
2016-09-30T12:32:07.488Z,268
2016-09-30T12:33:07.852Z,282
2016-09-30T12:34:08.371Z,309
2016-09-30T12:35:08.883Z,332
2016-09-30T12:36:09.541Z,340
2016-09-30T12:37:09.909Z,368
2016-09-30T12:38:10.415Z,332
2016-09-30T12:39:10.925Z,299
2016-09-30T12:40:11.441Z,297
2016-09-30T12:41:11.949Z,312
2016-09-30T12:42:12.461Z,333
2016-09-30T12:43:13.127Z,340
2016-09-30T12:44:13.486Z,354
2016-09-30T12:45:14.015Z,370
2016-09-30T12:46:14.507Z,381
2016-09-30T12:47:15.167Z,388
2016-09-30T12:48:15.527Z,402
2016-09-30T12:49:16.038Z,555
2016-09-30T12:50:16.551Z,367
2016-09-30T12:51:17.062Z,501
2016-09-30T12:52:17.725Z,419
2016-09-30T12:53:18.086Z,365
2016-09-30T12:54:18.750Z,409
2016-09-30T12:55:19.108Z,444
2016-09-30T12:56:19.622Z,437
2016-09-30T12:57:20.135Z,483
2016-09-30T12:58:20.791Z,388
2016-09-30T12:59:21.153Z,569
2016-09-30T13:00:21.663Z,351
2016-09-30T13:01:22.171Z,311
2016-09-30T13:02:22.685Z,314
2016-09-30T13:03:23.342Z,244
2016-09-30T13:04:23.708Z,232
2016-09-30T13:05:24.216Z,218
2016-09-30T13:06:24.730Z,215
2016-09-30T13:07:25.395Z,218
2016-09-30T13:08:25.779Z,231
2016-09-30T13:09:26.278Z,224
2016-09-30T13:10:26.783Z,202
2016-09-30T13:11:27.306Z,191
2016-09-30T13:12:27.810Z,187
2016-09-30T13:13:28.325Z,191
2016-09-30T13:14:28.829Z,194
2016-09-30T13:15:29.342Z,183
2016-09-30T13:16:29.854Z,178
2016-09-30T13:17:30.365Z,178
2016-09-30T13:18:30.874Z,184
2016-09-30T13:19:31.383Z,197
2016-09-30T13:20:32.043Z,213
2016-09-30T13:21:32.557Z,222
2016-09-30T13:22:32.919Z,224
2016-09-30T13:23:33.427Z,221
2016-09-30T13:24:33.939Z,235
2016-09-30T13:25:34.448Z,256
2016-09-30T13:26:34.965Z,248
2016-09-30T13:27:35.492Z,278
2016-09-30T13:28:36.000Z,344
2016-09-30T13:29:36.493Z,275
2016-09-30T13:30:37.006Z,262
2016-09-30T13:31:37.672Z,250
2016-09-30T13:32:38.031Z,249
2016-09-30T13:33:38.551Z,326
2016-09-30T13:34:39.057Z,395
2016-09-30T13:35:39.721Z,347
2016-09-30T13:36:40.080Z,349
2016-09-30T13:37:40.590Z,533
2016-09-30T13:38:41.098Z,534
2016-09-30T13:39:41.759Z,335
2016-09-30T13:40:42.423Z,495
2016-09-30T13:41:42.782Z,256
2016-09-30T13:42:44.338Z,234
2016-09-30T13:43:43.651Z,201
2016-09-30T13:44:44.310Z,182
2016-09-30T13:45:44.675Z,174
2016-09-30T13:46:45.192Z,180
2016-09-30T13:47:45.705Z,173
2016-09-30T13:48:46.520Z,171
2016-09-30T13:49:46.731Z,178
2016-09-30T13:50:47.247Z,196
2016-09-30T13:51:47.761Z,217
2016-09-30T13:52:48.420Z,232
2016-09-30T13:53:48.784Z,239
2016-09-30T13:54:49.449Z,239
2016-09-30T13:55:49.814Z,236
2016-09-30T13:56:50.325Z,238
2016-09-30T13:57:50.855Z,298
2016-09-30T13:58:51.490Z,264
2016-09-30T13:59:52.005Z,287
2016-09-30T14:00:52.510Z,297
2016-09-30T14:01:52.876Z,301
2016-09-30T14:02:53.390Z,323
2016-09-30T14:03:54.052Z,342
2016-09-30T14:04:54.416Z,278
2016-09-30T14:05:54.927Z,261
2016-09-30T14:06:55.459Z,369
2016-09-30T14:07:56.102Z,350
2016-09-30T14:08:56.467Z,262
2016-09-30T14:09:56.970Z,235
2016-09-30T14:10:57.482Z,235
2016-09-30T14:11:57.987Z,224
2016-09-30T14:13:00.598Z,199
2016-09-30T14:13:59.008Z,182
2016-09-30T14:14:59.525Z,179
2016-09-30T14:16:00.031Z,185
2016-09-30T14:17:00.693Z,201
2016-09-30T14:18:01.055Z,226
2016-09-30T14:19:01.709Z,243
2016-09-30T14:20:02.223Z,261
2016-09-30T14:21:02.588Z,305